createdAt,value
2022-12-22T00:00:17.685Z,13.52
2022-12-22T00:03:02.908Z,13.75
2022-12-22T00:05:48.497Z,12.68
2022-12-22T00:08:33.515Z,13.55
2022-12-22T00:11:19.637Z,14.77
2022-12-22T00:14:05.175Z,14.15
2022-12-22T00:16:54.651Z,13.35
2022-12-22T00:19:40.263Z,14.93
2022-12-22T00:22:32.864Z,12.73
2022-12-22T00:25:17.841Z,13.05
2022-12-22T00:28:03.019Z,13.73
2022-12-22T00:30:48.420Z,14.25
2022-12-22T00:33:35.877Z,14.80
2022-12-22T00:36:21.995Z,15.43
2022-12-22T00:39:07.239Z,14.48
2022-12-22T00:41:52.314Z,14.45
2022-12-22T00:44:37.349Z,16.00
2022-12-22T00:47:22.519Z,14.70
2022-12-22T00:50:10.673Z,15.90
2022-12-22T00:52:55.690Z,15.68
2022-12-22T00:55:44.509Z,14.63
2022-12-22T00:58:33.275Z,15.15
2022-12-22T01:01:18.477Z,15.73
2022-12-22T01:04:03.699Z,15.18
2022-12-22T01:06:50.015Z,15.73
2022-12-22T01:09:36.050Z,14.82
2022-12-22T01:12:22.773Z,15.88
2022-12-22T01:15:07.771Z,13.90
2022-12-22T01:17:52.872Z,14.27
2022-12-22T01:20:37.888Z,15.85
2022-12-22T01:23:27.139Z,15.23
2022-12-22T01:26:12.192Z,16.50
2022-12-22T01:28:57.446Z,14.57
2022-12-22T01:31:51.684Z,14.40
2022-12-22T01:34:36.849Z,14.55
2022-12-22T01:37:22.148Z,14.68
2022-12-22T01:40:07.316Z,16.13
2022-12-22T01:42:53.380Z,15.07
2022-12-22T01:45:38.523Z,15.75
2022-12-22T01:48:23.550Z,15.40
2022-12-22T01:51:08.779Z,14.45
2022-12-22T01:53:53.803Z,14.80
2022-12-22T01:56:38.897Z,15.20
2022-12-22T01:59:24.029Z,14.35
2022-12-22T02:02:09.290Z,14.27
2022-12-22T02:04:56.764Z,14.60
2022-12-22T02:07:47.532Z,15.93
2022-12-22T02:10:47.775Z,16.38
2022-12-22T02:13:51.843Z,14.35
2022-12-22T02:16:39.424Z,14.93
2022-12-22T02:19:27.623Z,15.65
2022-12-22T02:22:12.803Z,15.45
2022-12-22T02:25:05.023Z,15.13
2022-12-22T02:27:51.253Z,15.70
2022-12-22T02:30:36.883Z,14.32
2022-12-22T02:33:22.930Z,15.07
2022-12-22T02:36:14.213Z,15.60
2022-12-22T02:38:59.199Z,14.27
2022-12-22T02:41:50.400Z,15.88
2022-12-22T02:44:54.486Z,15.73
2022-12-22T02:47:47.042Z,14.55
2022-12-22T02:50:50.145Z,16.05
2022-12-22T02:53:36.833Z,15.85
2022-12-22T02:56:24.239Z,16.65
2022-12-22T02:59:09.841Z,16.30
2022-12-22T03:01:55.546Z,16.17
2022-12-22T03:04:40.971Z,16.83
2022-12-22T03:07:26.037Z,15.68
2022-12-22T03:10:11.201Z,16.83
2022-12-22T03:12:56.211Z,16.30
2022-12-22T03:15:41.373Z,17.50
2022-12-22T03:18:28.384Z,15.80
2022-12-22T03:21:14.115Z,18.13
2022-12-22T03:24:00.589Z,15.48
2022-12-22T03:26:27.545Z,17.00
2022-12-22T03:28:54.250Z,18.05
2022-12-22T03:31:21.003Z,18.67
2022-12-22T03:33:47.919Z,18.15
2022-12-22T03:36:14.736Z,18.42
2022-12-22T03:38:41.346Z,18.55
2022-12-22T03:41:08.024Z,18.52
2022-12-22T03:43:53.437Z,18.02
2022-12-22T03:46:32.208Z,17.83
2022-12-22T03:49:12.253Z,18.90
2022-12-22T03:51:40.980Z,18.52
2022-12-22T03:54:08.379Z,20.30
2022-12-22T03:56:35.478Z,19.13
2022-12-22T03:59:02.333Z,18.60
2022-12-22T04:01:29.118Z,19.58
2022-12-22T04:03:56.142Z,20.50
2022-12-22T04:06:22.963Z,21.08
2022-12-22T04:08:49.623Z,19.52
2022-12-22T04:11:36.005Z,20.40
2022-12-22T04:14:02.995Z,19.05
2022-12-22T04:16:30.032Z,19.90
2022-12-22T04:18:57.114Z,20.08
2022-12-22T04:21:24.079Z,20.92
2022-12-22T04:23:53.436Z,21.60
2022-12-22T04:26:21.589Z,20.60
2022-12-22T04:28:48.275Z,20.08
2022-12-22T04:31:15.074Z,20.45
2022-12-22T04:33:41.981Z,20.20
2022-12-22T04:36:08.899Z,19.48
2022-12-22T04:38:35.782Z,21.30
2022-12-22T04:41:02.477Z,19.17
2022-12-22T04:43:29.167Z,20.10
2022-12-22T04:45:56.796Z,20.00
2022-12-22T04:48:24.311Z,19.70
2022-12-22T04:50:51.771Z,18.40
2022-12-22T04:53:18.692Z,20.35
2022-12-22T04:55:49.628Z,18.35
2022-12-22T04:58:16.326Z,18.85
2022-12-22T05:00:43.459Z,18.98
2022-12-22T05:03:10.221Z,18.17
2022-12-22T05:05:37.299Z,17.85
2022-12-22T05:08:04.472Z,18.10
2022-12-22T05:10:31.649Z,19.00
2022-12-22T05:12:58.551Z,18.50
2022-12-22T05:15:26.807Z,18.13
2022-12-22T05:17:53.916Z,16.63
2022-12-22T05:20:20.986Z,16.80
2022-12-22T05:22:47.613Z,17.55
2022-12-22T05:25:16.761Z,18.02
2022-12-22T05:27:44.465Z,16.95
2022-12-22T05:30:11.725Z,18.17
2022-12-22T05:32:38.876Z,18.02
2022-12-22T05:35:05.843Z,17.17
2022-12-22T05:37:32.505Z,16.90
2022-12-22T05:39:59.241Z,16.65
2022-12-22T05:42:37.774Z,14.80
2022-12-22T05:45:20.368Z,16.03
2022-12-22T05:47:48.150Z,14.18
2022-12-22T05:50:16.464Z,15.05
2022-12-22T05:52:43.291Z,14.18
2022-12-22T05:55:13.315Z,14.35
2022-12-22T05:57:40.393Z,13.93
2022-12-22T06:00:12.896Z,13.55
2022-12-22T06:02:39.967Z,12.82
2022-12-22T06:05:07.260Z,13.05
2022-12-22T06:07:34.031Z,13.50
2022-12-22T06:10:02.829Z,12.80
2022-12-22T06:12:34.626Z,12.77
2022-12-22T06:15:01.288Z,13.55
2022-12-22T06:17:27.962Z,13.13
2022-12-22T06:19:54.706Z,13.85
2022-12-22T06:22:21.362Z,14.05
2022-12-22T06:24:48.167Z,13.57
2022-12-22T06:27:14.922Z,13.50
2022-12-22T06:29:41.618Z,13.98
2022-12-22T06:32:08.327Z,13.15
2022-12-22T06:34:35.071Z,14.02
2022-12-22T06:37:01.816Z,15.60
2022-12-22T06:39:28.536Z,14.90
2022-12-22T06:42:14.004Z,13.75
2022-12-22T06:44:40.777Z,15.25
2022-12-22T06:47:07.527Z,14.20
2022-12-22T06:49:34.205Z,14.10
2022-12-22T06:52:00.856Z,14.98
2022-12-22T06:54:27.791Z,15.38
2022-12-22T06:56:55.227Z,16.10
2022-12-22T06:59:21.942Z,16.13
2022-12-22T07:01:48.814Z,15.77
2022-12-22T07:04:20.088Z,15.95
2022-12-22T07:06:47.480Z,16.65
2022-12-22T07:09:14.338Z,16.23
2022-12-22T07:11:44.530Z,16.75
2022-12-22T07:14:11.622Z,16.00
2022-12-22T07:16:38.737Z,15.02
2022-12-22T07:19:06.147Z,16.38
2022-12-22T07:21:32.838Z,15.73
2022-12-22T07:23:59.526Z,16.77
2022-12-22T07:26:28.269Z,17.02
2022-12-22T07:28:56.791Z,16.73
2022-12-22T07:31:25.460Z,16.02
2022-12-22T07:33:52.710Z,16.73
2022-12-22T07:36:20.299Z,15.82
2022-12-22T07:38:48.776Z,16.20
2022-12-22T07:41:36.382Z,16.70
2022-12-22T07:44:04.053Z,15.20
2022-12-22T07:46:32.847Z,14.50
2022-12-22T07:49:18.378Z,15.77
2022-12-22T07:51:52.182Z,17.38
2022-12-22T07:54:19.814Z,15.32
2022-12-22T07:56:47.160Z,15.27
2022-12-22T07:59:14.179Z,15.48
2022-12-22T08:01:41.840Z,16.13
2022-12-22T08:04:09.631Z,16.77
2022-12-22T08:06:36.938Z,14.80
2022-12-22T08:09:04.252Z,16.30
2022-12-22T08:11:31.255Z,16.73
2022-12-22T08:14:02.349Z,15.60
2022-12-22T08:16:36.603Z,17.52
2022-12-22T08:19:10.231Z,16.40
2022-12-22T08:21:40.342Z,16.23
2022-12-22T08:24:07.311Z,19.13
2022-12-22T08:26:41.966Z,17.38
2022-12-22T08:29:14.334Z,16.88
2022-12-22T08:31:41.496Z,16.05
2022-12-22T08:34:10.587Z,17.75
2022-12-22T08:36:40.622Z,17.77
2022-12-22T08:39:08.181Z,16.45
2022-12-22T08:41:50.223Z,18.05
2022-12-22T08:47:49.031Z,15.98
2022-12-22T08:50:15.922Z,14.80
2022-12-22T08:52:42.403Z,16.73
2022-12-22T08:55:09.610Z,16.40
2022-12-22T08:57:36.034Z,16.58
2022-12-22T09:00:02.708Z,16.33
2022-12-22T09:02:30.092Z,17.33
2022-12-22T09:04:56.747Z,16.80
2022-12-22T09:07:23.342Z,16.05
2022-12-22T09:09:49.912Z,14.98
2022-12-22T09:12:16.566Z,17.52
2022-12-22T09:14:43.120Z,16.40
2022-12-22T09:17:11.854Z,14.73
2022-12-22T09:19:38.287Z,15.93
2022-12-22T09:22:04.696Z,15.45
2022-12-22T09:24:31.171Z,14.25
2022-12-22T09:26:57.618Z,15.27
2022-12-22T09:29:24.252Z,14.52
2022-12-22T09:31:50.783Z,14.95
2022-12-22T09:34:18.643Z,14.70
2022-12-22T09:36:45.985Z,14.82
2022-12-22T09:39:12.708Z,14.05
2022-12-22T09:41:47.310Z,14.00
2022-12-22T09:44:22.643Z,13.48
2022-12-22T09:46:51.327Z,12.07
2022-12-22T09:49:19.201Z,14.07
2022-12-22T09:52:12.130Z,13.50
2022-12-22T09:54:38.780Z,12.52
2022-12-22T09:57:11.562Z,12.73
2022-12-22T09:59:37.934Z,12.95
2022-12-22T10:02:24.585Z,13.45
2022-12-22T10:05:00.087Z,11.73
2022-12-22T10:07:29.583Z,10.95
2022-12-22T10:12:24.341Z,11.05
2022-12-22T10:14:51.549Z,11.38
2022-12-22T10:17:21.413Z,11.90
2022-12-22T10:19:49.226Z,11.07
2022-12-22T10:22:51.247Z,11.27
2022-12-22T10:25:39.901Z,11.65
2022-12-22T10:28:21.810Z,11.82
2022-12-22T10:30:48.442Z,12.27
2022-12-22T10:33:16.412Z,10.75
2022-12-22T10:35:43.155Z,10.93
2022-12-22T10:38:21.410Z,11.27
2022-12-22T10:40:59.961Z,10.93
2022-12-22T10:43:34.500Z,11.57
2022-12-22T10:46:01.775Z,12.68
2022-12-22T10:48:29.820Z,12.40
2022-12-22T10:50:57.676Z,11.73
2022-12-22T10:53:38.483Z,11.90
2022-12-22T10:56:06.095Z,11.32
2022-12-22T10:58:47.662Z,12.05
2022-12-22T11:01:22.594Z,11.10
2022-12-22T11:03:49.160Z,13.02
2022-12-22T11:06:15.699Z,11.45
2022-12-22T11:08:49.174Z,12.18
2022-12-22T11:11:30.779Z,11.95
2022-12-22T11:14:16.072Z,11.68
2022-12-22T11:16:47.043Z,11.45
2022-12-22T11:19:13.745Z,10.90
2022-12-22T11:22:12.720Z,10.13
2022-12-22T11:24:43.009Z,10.20
2022-12-22T11:27:23.619Z,9.65
2022-12-22T11:29:57.788Z,9.45
2022-12-22T11:32:41.093Z,10.20
2022-12-22T11:35:13.018Z,9.50
2022-12-22T11:37:50.719Z,9.73
2022-12-22T11:40:34.601Z,11.38
2022-12-22T11:43:19.880Z,10.13
2022-12-22T11:45:52.449Z,11.70
2022-12-22T11:48:34.040Z,10.73
2022-12-22T11:51:11.252Z,11.38
2022-12-22T11:53:52.861Z,11.88
2022-12-22T11:56:22.304Z,11.63
2022-12-22T12:01:27.359Z,10.35
2022-12-22T12:03:54.005Z,9.95
2022-12-22T12:06:23.488Z,10.93
2022-12-22T12:08:52.965Z,10.95
2022-12-22T12:13:51.898Z,9.60
2022-12-22T12:16:37.975Z,10.50
2022-12-22T12:19:26.751Z,11.15
2022-12-22T12:21:56.492Z,10.50
2022-12-22T12:24:41.855Z,10.73
2022-12-22T12:27:15.073Z,11.07
2022-12-22T12:29:48.730Z,11.20
2022-12-22T12:32:25.232Z,9.95
2022-12-22T12:34:56.152Z,10.98
2022-12-22T12:37:28.920Z,10.50
2022-12-22T12:39:55.264Z,10.32
2022-12-22T12:42:41.962Z,9.77
2022-12-22T12:45:41.301Z,10.25
2022-12-22T12:50:34.839Z,9.18
2022-12-22T12:53:01.271Z,9.43
2022-12-22T12:55:32.554Z,10.25
2022-12-22T12:58:00.588Z,10.00
2022-12-22T13:00:33.366Z,10.25
2022-12-22T13:03:05.329Z,9.38
2022-12-22T13:05:48.847Z,8.60
2022-12-22T13:08:18.119Z,10.55
2022-12-22T13:10:48.689Z,9.48
2022-12-22T13:13:24.229Z,10.65
2022-12-22T13:15:50.696Z,9.57
2022-12-22T13:18:23.145Z,9.45
2022-12-22T13:21:42.608Z,9.20
2022-12-22T13:24:24.275Z,9.88
2022-12-22T13:26:47.118Z,9.02
2022-12-22T13:29:13.463Z,9.80
2022-12-22T13:31:44.465Z,9.98
2022-12-22T13:34:23.053Z,8.80
2022-12-22T13:36:50.849Z,9.17
2022-12-22T13:39:17.597Z,9.27
2022-12-22T13:41:48.263Z,8.82
2022-12-22T13:44:25.361Z,9.23
2022-12-22T13:46:51.952Z,9.50
2022-12-22T13:49:43.233Z,9.35
2022-12-22T13:52:06.342Z,9.05
2022-12-22T13:54:35.377Z,8.57
2022-12-22T13:57:03.259Z,8.48
2022-12-22T13:59:30.985Z,9.00
2022-12-22T14:01:59.643Z,8.40
2022-12-22T14:04:26.640Z,8.07
2022-12-22T14:06:54.752Z,8.10
2022-12-22T14:09:21.166Z,8.25
2022-12-22T14:12:08.434Z,7.85
2022-12-22T14:14:39.742Z,8.27
2022-12-22T14:17:17.775Z,7.32
2022-12-22T14:19:44.346Z,7.88
2022-12-22T14:22:13.742Z,8.23
2022-12-22T14:24:49.221Z,8.07
2022-12-22T14:27:30.441Z,7.47
2022-12-22T14:29:58.633Z,7.68
2022-12-22T14:32:57.638Z,7.45
2022-12-22T14:35:26.427Z,7.97
2022-12-22T14:38:08.415Z,8.75
2022-12-22T14:40:39.185Z,8.23
2022-12-22T14:43:07.030Z,7.57
2022-12-22T14:45:33.868Z,8.70
2022-12-22T14:48:00.396Z,8.57
2022-12-22T14:50:27.939Z,8.30
2022-12-22T14:52:55.603Z,8.20
2022-12-22T14:55:25.103Z,7.30
2022-12-22T15:00:24.427Z,8.43
2022-12-22T15:03:02.005Z,8.05
2022-12-22T15:05:30.179Z,7.95
2022-12-22T15:08:07.511Z,7.90
2022-12-22T15:10:42.155Z,8.25
2022-12-22T15:13:21.497Z,8.30
2022-12-22T15:15:49.618Z,8.27
2022-12-22T15:18:16.110Z,7.82
2022-12-22T15:20:42.624Z,8.32
2022-12-22T15:23:10.607Z,8.75
2022-12-22T15:25:37.021Z,7.75
2022-12-22T15:28:03.451Z,8.10
2022-12-22T15:30:30.318Z,7.60
2022-12-22T15:32:57.171Z,8.35
2022-12-22T15:35:31.196Z,8.40
2022-12-22T15:37:57.756Z,7.55
2022-12-22T15:40:25.252Z,7.90
2022-12-22T15:42:51.800Z,7.93
2022-12-22T15:45:18.927Z,8.05
2022-12-22T15:47:47.722Z,8.50
2022-12-22T15:50:16.370Z,8.65
2022-12-22T15:52:45.744Z,9.48
2022-12-22T15:55:14.284Z,9.57
2022-12-22T15:57:40.714Z,9.27
2022-12-22T16:00:07.500Z,9.25
2022-12-22T16:02:34.011Z,9.82
2022-12-22T16:05:00.531Z,8.70
2022-12-22T16:07:26.918Z,9.25
2022-12-22T16:09:53.258Z,9.23
2022-12-22T16:12:19.743Z,9.30
2022-12-22T16:14:50.610Z,9.80
2022-12-22T16:17:18.582Z,8.18
2022-12-22T16:19:47.974Z,9.50
2022-12-22T16:22:15.618Z,8.85
2022-12-22T16:24:44.136Z,8.15
2022-12-22T16:27:13.967Z,9.35
2022-12-22T16:29:44.926Z,8.93
2022-12-22T16:32:17.658Z,9.57
2022-12-22T16:34:44.623Z,8.13
2022-12-22T16:37:11.062Z,8.75
2022-12-22T16:39:37.450Z,8.90
2022-12-22T16:42:04.319Z,9.32
2022-12-22T16:47:35.561Z,9.60
2022-12-22T16:50:01.933Z,8.77
2022-12-22T16:52:36.410Z,7.90
2022-12-22T16:55:03.264Z,8.20
2022-12-22T16:57:29.874Z,8.07
2022-12-22T16:59:56.409Z,8.75
2022-12-22T17:02:25.455Z,8.18
2022-12-22T17:04:52.751Z,8.82
2022-12-22T17:07:19.185Z,7.35
2022-12-22T17:09:47.962Z,7.45
2022-12-22T17:12:16.889Z,7.65
2022-12-22T17:14:43.654Z,7.57
2022-12-22T17:17:14.643Z,8.77
2022-12-22T17:19:41.031Z,10.48
2022-12-22T17:22:18.234Z,9.20
2022-12-22T17:24:44.620Z,8.43
2022-12-22T17:27:11.226Z,7.93
2022-12-22T17:29:38.610Z,7.40
2022-12-22T17:32:05.139Z,6.18
2022-12-22T17:34:31.597Z,5.47
2022-12-22T17:36:59.990Z,5.72
2022-12-22T17:39:26.586Z,5.53
2022-12-22T17:41:57.079Z,4.95
2022-12-22T17:44:24.880Z,4.85
2022-12-22T17:46:51.575Z,6.10
2022-12-22T17:49:20.151Z,4.60
2022-12-22T17:51:46.984Z,4.35
2022-12-22T17:54:24.573Z,5.50
2022-12-22T17:56:51.363Z,4.68
2022-12-22T17:59:17.883Z,5.00
2022-12-22T18:01:44.410Z,4.20
2022-12-22T18:04:11.060Z,4.28
2022-12-22T18:06:39.436Z,4.15
2022-12-22T18:09:07.121Z,4.07
2022-12-22T18:11:33.583Z,4.80
2022-12-22T18:14:00.041Z,4.22
2022-12-22T18:16:26.519Z,5.00
2022-12-22T18:18:52.927Z,4.40
2022-12-22T18:21:20.996Z,4.55
2022-12-22T18:23:50.404Z,4.65
2022-12-22T18:26:19.861Z,4.57
2022-12-22T18:28:46.326Z,4.25
2022-12-22T18:31:12.873Z,5.05
2022-12-22T18:33:39.266Z,4.63
2022-12-22T18:36:05.932Z,4.13
2022-12-22T18:38:33.839Z,5.28
2022-12-22T18:41:00.360Z,4.72
2022-12-22T18:43:26.889Z,4.97
2022-12-22T18:45:53.330Z,4.57
2022-12-22T18:48:19.779Z,5.43
2022-12-22T18:50:46.182Z,5.43
2022-12-22T18:53:24.551Z,5.85
2022-12-22T18:55:51.097Z,5.50
2022-12-22T18:58:17.551Z,5.35
2022-12-22T19:00:44.427Z,4.60
2022-12-22T19:03:19.027Z,5.20
2022-12-22T19:05:45.930Z,5.60
2022-12-22T19:08:14.327Z,5.00
2022-12-22T19:10:42.580Z,4.95
2022-12-22T19:13:16.601Z,4.53
2022-12-22T19:15:43.416Z,4.90
2022-12-22T19:18:14.510Z,5.03
2022-12-22T19:20:40.919Z,4.85
2022-12-22T19:23:07.297Z,4.72
2022-12-22T19:25:33.730Z,5.30
2022-12-22T19:28:08.167Z,6.38
2022-12-22T19:30:34.645Z,5.13
2022-12-22T19:33:02.848Z,5.32
2022-12-22T19:35:30.868Z,5.68
2022-12-22T19:37:58.110Z,5.63
2022-12-22T19:40:27.737Z,4.75
2022-12-22T19:42:55.407Z,4.53
2022-12-22T19:45:24.558Z,4.85
2022-12-22T19:47:52.772Z,4.15
2022-12-22T19:50:21.217Z,4.15
2022-12-22T19:52:47.648Z,4.10
2022-12-22T19:55:14.114Z,4.50
2022-12-22T19:57:42.180Z,5.07
2022-12-22T20:00:19.554Z,4.80
2022-12-22T20:02:47.073Z,4.72
2022-12-22T20:05:32.254Z,4.22
2022-12-22T20:07:59.981Z,4.90
2022-12-22T20:10:29.876Z,5.20
2022-12-22T20:12:58.421Z,6.50
2022-12-22T20:15:28.921Z,6.15
2022-12-22T20:17:55.938Z,5.68
2022-12-22T20:20:29.672Z,5.95
2022-12-22T20:22:58.567Z,4.78
2022-12-22T20:25:26.640Z,4.90
2022-12-22T20:27:54.024Z,4.88
2022-12-22T20:30:22.915Z,5.10
2022-12-22T20:32:49.591Z,4.47
2022-12-22T20:35:16.160Z,4.70
2022-12-22T20:37:42.615Z,3.92
2022-12-22T20:40:28.940Z,4.65
2022-12-22T20:42:56.222Z,5.47
2022-12-22T20:45:22.915Z,5.10
2022-12-22T20:47:49.897Z,5.13
2022-12-22T20:50:27.672Z,4.22
2022-12-22T20:52:54.781Z,4.65
2022-12-22T20:55:22.779Z,4.75
2022-12-22T20:57:49.741Z,5.90
2022-12-22T21:00:17.298Z,5.20
2022-12-22T21:02:44.060Z,4.60
2022-12-22T21:05:11.344Z,4.30
2022-12-22T21:07:37.827Z,3.85
2022-12-22T21:10:04.469Z,4.75
2022-12-22T21:12:30.880Z,3.92
2022-12-22T21:14:57.363Z,4.30
2022-12-22T21:17:23.808Z,4.78
2022-12-22T21:19:50.378Z,4.63
2022-12-22T21:22:16.791Z,5.50
2022-12-22T21:24:43.974Z,5.30
2022-12-22T21:27:17.224Z,4.60
2022-12-22T21:29:43.776Z,4.93
2022-12-22T21:32:13.778Z,5.10
2022-12-22T21:34:40.205Z,5.82
2022-12-22T21:37:11.087Z,5.05
2022-12-22T21:39:39.449Z,4.90
2022-12-22T21:42:06.565Z,4.68
2022-12-22T21:44:34.145Z,5.03
2022-12-22T21:47:01.301Z,5.22
2022-12-22T21:49:29.219Z,4.35
2022-12-22T21:51:55.664Z,5.88
2022-12-22T21:54:22.954Z,4.60
2022-12-22T21:56:50.309Z,4.22
2022-12-22T21:59:16.715Z,4.10
2022-12-22T22:01:44.875Z,4.93
2022-12-22T22:04:11.940Z,4.97
2022-12-22T22:06:38.368Z,4.30
2022-12-22T22:09:05.286Z,4.32
2022-12-22T22:11:32.107Z,4.82
2022-12-22T22:13:58.715Z,4.65
2022-12-22T22:16:25.236Z,5.03
2022-12-22T22:18:51.819Z,5.80
2022-12-22T22:21:18.319Z,4.85
2022-12-22T22:23:44.863Z,4.32
2022-12-22T22:26:11.337Z,5.03
2022-12-22T22:28:38.084Z,5.10
2022-12-22T22:31:10.869Z,4.15
2022-12-22T22:33:37.517Z,3.42
2022-12-22T22:36:06.033Z,4.40
2022-12-22T22:38:32.668Z,4.32
2022-12-22T22:40:59.374Z,4.25
2022-12-22T22:43:25.854Z,4.82
2022-12-22T22:45:52.258Z,3.83
2022-12-22T22:48:19.984Z,3.80
2022-12-22T22:50:46.509Z,3.58
2022-12-22T22:53:12.981Z,4.25
2022-12-22T22:55:39.474Z,4.50
2022-12-22T22:58:07.047Z,3.40
2022-12-22T23:00:33.534Z,4.13
2022-12-22T23:03:00.556Z,3.65
2022-12-22T23:05:27.219Z,3.50
2022-12-22T23:07:53.725Z,3.20
2022-12-22T23:10:20.203Z,3.33
2022-12-22T23:12:46.600Z,3.42
2022-12-22T23:15:12.968Z,3.22
2022-12-22T23:17:39.369Z,3.33
2022-12-22T23:20:06.147Z,3.83
2022-12-22T23:22:32.545Z,3.70
2022-12-22T23:24:58.929Z,3.35
2022-12-22T23:27:25.257Z,3.75
2022-12-22T23:29:51.603Z,3.83
2022-12-22T23:32:18.057Z,3.58
2022-12-22T23:34:44.497Z,3.35
2022-12-22T23:37:17.199Z,3.55
2022-12-22T23:39:45.629Z,3.50
2022-12-22T23:42:11.982Z,3.40
2022-12-22T23:44:38.400Z,3.60
2022-12-22T23:47:04.892Z,3.50
2022-12-22T23:49:31.367Z,3.55
2022-12-22T23:51:57.704Z,3.10
2022-12-22T23:54:24.173Z,3.38
2022-12-22T23:56:50.597Z,3.00
2022-12-22T23:59:16.998Z,3.60
